Gillette, WY (82716)

9:02 PM MDT on June 22, 2017 (GMT -0600)
Gillette | | Change Station

Elev 4691 ft 44.29 °N, 105.55 °W | Updated 12 minutes ago

Overcast
Overcast
63.0 °F
Feels Like 63.0 °F
N
11.2
Wind Variable Wind from North
Gusts 18.0 mph

Today
High -- | Low -- °F
--% Chance of Precip.
Yesterday
High -- | Low -- °F
Precip. -- in
Pressure 30.01 in
Visibility 10.0 miles
Clouds Overcast 9000 ft
Dew Point 38 °F
Humidity 39%
Rainfall 0.05 in
Snow Depth Not available.
5:18 AM 8:50 PM
Waning Crescent, 2% visible
METAR KGCC 230253Z AUTO 36015G23KT 10SM OVC090 17/M01 A3010 RMK AO2 PK WND 36027/0234 SLP160 T01721011 53029
Pressure 30.01 in
Visibility 10.0 miles
Clouds Overcast 9000 ft
Dew Point 38 °F
Humidity 39%
Rainfall 0.05 in
Snow Depth Not available.
5:18 AM 8:50 PM
Waning Crescent, 2% visible
METAR KGCC 230253Z AUTO 36015G23KT 10SM OVC090 17/M01 A3010 RMK AO2 PK WND 36027/0234 SLP160 T01721011 53029

Get Severe Weather Alerts

Thanks for signing up!

Be on the lookout for a verification email in your inbox.

You'll start receiving the daily forecast at 6 AM.

×

10-Day Weather Forecast

Almanac

Astronomy

Jun. 22, 2017 Rise Set
Actual Time
Civil Twilight
Nautical Twilight
Astronomical Twilight
Moon
Length of Visible Light
Length of Day
Tomorrow will be .
, % of the Moon is Illuminated

Today's Extremes

State Highs State Lows

Community

WunderPhotos

Category 6

Welcome to Category 6. This is the collective home for Weather Underground's featured writeups by Dr. Jeff Masters (right), Bob Henson (left), Chris Burt, and other regular contributors.

Nearby

Air Quality

  Air Quality AQ Index Pollutant
Not available.

Snow Depth

Station Depth Elevation

Earthquake Activity

City Distance Mag. Time & Date
Minimum magnitude displayed is 2.5.

Coastal Water Temperatures

Place Temperature

Stations

Nearby Weather Stations

Station Location Temp. Windchill Dew Point Humidity Wind Precip. Elev Updated Type
                   

Watches & Warnings

There are currently no watches in effect.